sensor_id;sensor_type;location;lat;lon;timestamp;P1;durP1;ratioP1;P2;durP2;ratioP2
16326;SDS011;34812;49.846;9.610;2023-07-13T00:01:35;1.50;;;0.80;;
16326;SDS011;34812;49.846;9.610;2023-07-13T00:06:40;1.33;;;1.13;;
16326;SDS011;34812;49.846;9.610;2023-07-13T00:11:45;4.03;;;0.73;;
16326;SDS011;34812;49.846;9.610;2023-07-13T00:16:47;1.27;;;0.90;;
16326;SDS011;34812;49.846;9.610;2023-07-13T00:21:51;0.95;;;0.77;;
16326;SDS011;34812;49.846;9.610;2023-07-13T00:26:55;1.58;;;0.90;;
16326;SDS011;34812;49.846;9.610;2023-07-13T00:31:58;0.70;;;0.70;;
16326;SDS011;34812;49.846;9.610;2023-07-13T00:37:01;4.50;;;0.70;;
16326;SDS011;34812;49.846;9.610;2023-07-13T00:42:04;1.92;;;0.90;;
16326;SDS011;34812;49.846;9.610;2023-07-13T00:47:06;2.17;;;0.70;;
16326;SDS011;34812;49.846;9.610;2023-07-13T00:52:09;3.05;;;1.00;;
16326;SDS011;34812;49.846;9.610;2023-07-13T00:57:12;4.50;;;0.98;;
16326;SDS011;34812;49.846;9.610;2023-07-13T01:02:15;1.77;;;0.98;;
16326;SDS011;34812;49.846;9.610;2023-07-13T01:07:19;0.93;;;0.93;;
16326;SDS011;34812;49.846;9.610;2023-07-13T01:12:21;1.48;;;0.80;;
16326;SDS011;34812;49.846;9.610;2023-07-13T01:17:23;1.65;;;0.90;;
16326;SDS011;34812;49.846;9.610;2023-07-13T01:22:27;2.72;;;0.85;;
16326;SDS011;34812;49.846;9.610;2023-07-13T01:27:31;1.08;;;0.82;;
16326;SDS011;34812;49.846;9.610;2023-07-13T01:32:34;3.22;;;1.17;;
16326;SDS011;34812;49.846;9.610;2023-07-13T01:37:38;1.38;;;0.85;;
16326;SDS011;34812;49.846;9.610;2023-07-13T01:42:40;1.95;;;1.33;;
16326;SDS011;34812;49.846;9.610;2023-07-13T01:47:42;0.85;;;0.85;;
16326;SDS011;34812;49.846;9.610;2023-07-13T01:52:47;1.10;;;1.00;;
16326;SDS011;34812;49.846;9.610;2023-07-13T01:57:50;2.15;;;0.80;;
16326;SDS011;34812;49.846;9.610;2023-07-13T02:02:52;2.63;;;1.23;;
16326;SDS011;34812;49.846;9.610;2023-07-13T02:07:55;2.17;;;1.25;;
16326;SDS011;34812;49.846;9.610;2023-07-13T02:12:58;1.17;;;1.00;;
16326;SDS011;34812;49.846;9.610;2023-07-13T02:18:00;1.00;;;0.90;;
16326;SDS011;34812;49.846;9.610;2023-07-13T02:23:05;1.85;;;1.40;;
16326;SDS011;34812;49.846;9.610;2023-07-13T02:28:07;1.20;;;1.10;;
16326;SDS011;34812;49.846;9.610;2023-07-13T02:33:09;2.10;;;0.90;;
16326;SDS011;34812;49.846;9.610;2023-07-13T02:38:12;3.27;;;0.80;;
16326;SDS011;34812;49.846;9.610;2023-07-13T02:43:14;0.90;;;0.80;;
16326;SDS011;34812;49.846;9.610;2023-07-13T02:48:16;0.80;;;0.80;;
16326;SDS011;34812;49.846;9.610;2023-07-13T02:53:20;1.30;;;1.13;;
16326;SDS011;34812;49.846;9.610;2023-07-13T02:58:22;1.33;;;1.00;;
16326;SDS011;34812;49.846;9.610;2023-07-13T03:03:26;1.07;;;1.00;;
16326;SDS011;34812;49.846;9.610;2023-07-13T03:08:29;1.23;;;0.87;;
16326;SDS011;34812;49.846;9.610;2023-07-13T03:13:32;1.80;;;1.00;;
16326;SDS011;34812;49.846;9.610;2023-07-13T03:18:36;1.63;;;1.47;;
16326;SDS011;34812;49.846;9.610;2023-07-13T03:23:43;1.23;;;1.10;;
16326;SDS011;34812;49.846;9.610;2023-07-13T03:28:45;2.50;;;1.20;;
16326;SDS011;34812;49.846;9.610;2023-07-13T03:33:52;3.20;;;1.03;;
16326;SDS011;34812;49.846;9.610;2023-07-13T03:38:56;1.30;;;1.20;;
16326;SDS011;34812;49.846;9.610;2023-07-13T03:44:04;1.10;;;1.00;;
16326;SDS011;34812;49.846;9.610;2023-07-13T03:49:07;1.30;;;1.00;;
16326;SDS011;34812;49.846;9.610;2023-07-13T03:54:10;1.17;;;1.03;;
16326;SDS011;34812;49.846;9.610;2023-07-13T03:59:12;1.60;;;1.50;;
16326;SDS011;34812;49.846;9.610;2023-07-13T04:04:14;1.83;;;1.20;;
16326;SDS011;34812;49.846;9.610;2023-07-13T04:09:18;5.60;;;1.50;;
16326;SDS011;34812;49.846;9.610;2023-07-13T04:14:21;0.90;;;0.90;;
16326;SDS011;34812;49.846;9.610;2023-07-13T04:19:23;2.00;;;0.80;;
16326;SDS011;34812;49.846;9.610;2023-07-13T04:24:26;1.43;;;1.20;;
16326;SDS011;34812;49.846;9.610;2023-07-13T04:29:28;1.87;;;1.20;;
16326;SDS011;34812;49.846;9.610;2023-07-13T04:34:31;1.15;;;1.05;;
16326;SDS011;34812;49.846;9.610;2023-07-13T04:39:34;1.40;;;1.10;;
16326;SDS011;34812;49.846;9.610;2023-07-13T04:44:37;2.20;;;1.50;;
16326;SDS011;34812;49.846;9.610;2023-07-13T04:49:39;1.70;;;1.13;;
16326;SDS011;34812;49.846;9.610;2023-07-13T04:54:43;2.70;;;1.10;;
16326;SDS011;34812;49.846;9.610;2023-07-13T04:59:45;1.00;;;1.00;;
16326;SDS011;34812;49.846;9.610;2023-07-13T05:04:47;1.45;;;0.80;;
16326;SDS011;34812;49.846;9.610;2023-07-13T05:09:51;4.13;;;1.10;;
16326;SDS011;34812;49.846;9.610;2023-07-13T05:14:53;0.95;;;0.80;;
16326;SDS011;34812;49.846;9.610;2023-07-13T05:19:55;1.15;;;1.02;;
16326;SDS011;34812;49.846;9.610;2023-07-13T05:24:59;1.95;;;1.02;;
16326;SDS011;34812;49.846;9.610;2023-07-13T05:30:01;0.77;;;0.77;;
16326;SDS011;34812;49.846;9.610;2023-07-13T05:35:03;0.73;;;0.73;;
16326;SDS011;34812;49.846;9.610;2023-07-13T05:40:07;3.95;;;1.35;;
16326;SDS011;34812;49.846;9.610;2023-07-13T05:45:10;1.15;;;1.10;;
16326;SDS011;34812;49.846;9.610;2023-07-13T05:50:12;2.92;;;0.90;;
16326;SDS011;34812;49.846;9.610;2023-07-13T05:55:15;1.75;;;0.80;;
16326;SDS011;34812;49.846;9.610;2023-07-13T06:00:18;1.67;;;1.10;;
16326;SDS011;34812;49.846;9.610;2023-07-13T06:05:20;7.20;;;1.10;;
16326;SDS011;34812;49.846;9.610;2023-07-13T06:10:23;5.50;;;0.75;;
16326;SDS011;34812;49.846;9.610;2023-07-13T06:15:25;1.27;;;0.88;;
16326;SDS011;34812;49.846;9.610;2023-07-13T06:20:27;3.00;;;1.00;;
16326;SDS011;34812;49.846;9.610;2023-07-13T06:25:31;4.65;;;0.90;;
16326;SDS011;34812;49.846;9.610;2023-07-13T06:30:33;0.80;;;0.70;;
16326;SDS011;34812;49.846;9.610;2023-07-13T06:35:35;1.48;;;0.68;;
16326;SDS011;34812;49.846;9.610;2023-07-13T06:40:39;1.88;;;0.68;;
16326;SDS011;34812;49.846;9.610;2023-07-13T06:45:42;3.10;;;0.65;;
16326;SDS011;34812;49.846;9.610;2023-07-13T06:50:46;0.70;;;0.70;;
16326;SDS011;34812;49.846;9.610;2023-07-13T06:55:49;1.58;;;0.43;;
16326;SDS011;34812;49.846;9.610;2023-07-13T07:00:52;1.13;;;0.50;;
16326;SDS011;34812;49.846;9.610;2023-07-13T07:05:54;0.47;;;0.43;;
16326;SDS011;34812;49.846;9.610;2023-07-13T07:10:57;1.40;;;0.38;;
16326;SDS011;34812;49.846;9.610;2023-07-13T07:15:59;1.13;;;0.30;;
16326;SDS011;34812;49.846;9.610;2023-07-13T07:21:01;1.10;;;0.65;;
16326;SDS011;34812;49.846;9.610;2023-07-13T07:26:05;1.58;;;0.50;;
16326;SDS011;34812;49.846;9.610;2023-07-13T07:31:08;1.40;;;0.50;;
16326;SDS011;34812;49.846;9.610;2023-07-13T07:36:11;0.82;;;0.52;;
16326;SDS011;34812;49.846;9.610;2023-07-13T07:41:14;0.75;;;0.52;;
16326;SDS011;34812;49.846;9.610;2023-07-13T07:46:16;0.50;;;0.47;;
16326;SDS011;34812;49.846;9.610;2023-07-13T07:51:18;2.92;;;0.43;;
16326;SDS011;34812;49.846;9.610;2023-07-13T07:56:22;8.75;;;0.63;;
16326;SDS011;34812;49.846;9.610;2023-07-13T08:01:24;1.20;;;0.60;;
16326;SDS011;34812;49.846;9.610;2023-07-13T08:06:26;0.80;;;0.45;;
16326;SDS011;34812;49.846;9.610;2023-07-13T08:11:30;0.93;;;0.50;;
16326;SDS011;34812;49.846;9.610;2023-07-13T08:16:32;2.13;;;0.68;;
16326;SDS011;34812;49.846;9.610;2023-07-13T08:21:34;0.68;;;0.60;;
16326;SDS011;34812;49.846;9.610;2023-07-13T08:26:38;0.70;;;0.50;;
16326;SDS011;34812;49.846;9.610;2023-07-13T08:31:40;0.88;;;0.60;;
16326;SDS011;34812;49.846;9.610;2023-07-13T08:36:42;2.38;;;0.70;;
16326;SDS011;34812;49.846;9.610;2023-07-13T08:41:46;4.05;;;0.60;;
16326;SDS011;34812;49.846;9.610;2023-07-13T08:46:49;0.32;;;0.32;;
16326;SDS011;34812;49.846;9.610;2023-07-13T08:51:53;0.73;;;0.52;;
16326;SDS011;34812;49.846;9.610;2023-07-13T08:56:58;2.70;;;0.50;;
16326;SDS011;34812;49.846;9.610;2023-07-13T09:02:05;3.63;;;0.43;;
16326;SDS011;34812;49.846;9.610;2023-07-13T09:07:12;2.35;;;0.55;;
16326;SDS011;34812;49.846;9.610;2023-07-13T09:12:19;3.17;;;0.65;;
16326;SDS011;34812;49.846;9.610;2023-07-13T09:17:25;1.95;;;0.80;;
16326;SDS011;34812;49.846;9.610;2023-07-13T09:22:28;1.63;;;0.50;;
16326;SDS011;34812;49.846;9.610;2023-07-13T09:27:35;3.15;;;0.52;;
16326;SDS011;34812;49.846;9.610;2023-07-13T09:32:39;2.83;;;0.47;;
16326;SDS011;34812;49.846;9.610;2023-07-13T09:37:43;0.63;;;0.40;;
16326;SDS011;34812;49.846;9.610;2023-07-13T09:42:48;1.95;;;0.60;;
16326;SDS011;34812;49.846;9.610;2023-07-13T09:47:50;3.58;;;0.70;;
16326;SDS011;34812;49.846;9.610;2023-07-13T09:53:01;1.58;;;0.50;;
16326;SDS011;34812;49.846;9.610;2023-07-13T09:58:05;2.03;;;0.70;;
16326;SDS011;34812;49.846;9.610;2023-07-13T10:03:14;1.98;;;0.70;;
16326;SDS011;34812;49.846;9.610;2023-07-13T10:08:18;0.73;;;0.40;;
16326;SDS011;34812;49.846;9.610;2023-07-13T10:13:27;0.45;;;0.40;;
16326;SDS011;34812;49.846;9.610;2023-07-13T10:18:33;1.35;;;0.60;;
16326;SDS011;34812;49.846;9.610;2023-07-13T10:23:37;2.20;;;0.50;;
16326;SDS011;34812;49.846;9.610;2023-07-13T10:28:41;3.10;;;0.68;;
16326;SDS011;34812;49.846;9.610;2023-07-13T10:33:45;2.97;;;0.57;;
16326;SDS011;34812;49.846;9.610;2023-07-13T10:38:47;1.13;;;0.60;;
16326;SDS011;34812;49.846;9.610;2023-07-13T10:43:52;1.35;;;0.45;;
16326;SDS011;34812;49.846;9.610;2023-07-13T10:48:55;1.13;;;0.60;;
16326;SDS011;34812;49.846;9.610;2023-07-13T10:54:10;1.75;;;0.47;;
16326;SDS011;34812;49.846;9.610;2023-07-13T10:59:15;0.40;;;0.40;;
16326;SDS011;34812;49.846;9.610;2023-07-13T11:04:19;0.50;;;0.28;;
16326;SDS011;34812;49.846;9.610;2023-07-13T11:09:32;1.75;;;0.40;;
16326;SDS011;34812;49.846;9.610;2023-07-13T11:14:38;0.70;;;0.40;;
16326;SDS011;34812;49.846;9.610;2023-07-13T11:19:43;1.50;;;0.50;;
16326;SDS011;34812;49.846;9.610;2023-07-13T11:30:21;4.55;;;0.82;;
16326;SDS011;34812;49.846;9.610;2023-07-13T11:35:25;0.95;;;0.50;;
16326;SDS011;34812;49.846;9.610;2023-07-13T11:40:28;0.93;;;0.50;;
16326;SDS011;34812;49.846;9.610;2023-07-13T11:45:33;1.60;;;0.70;;
16326;SDS011;34812;49.846;9.610;2023-07-13T11:50:35;1.77;;;0.95;;
16326;SDS011;34812;49.846;9.610;2023-07-13T11:55:37;1.30;;;0.70;;
16326;SDS011;34812;49.846;9.610;2023-07-13T12:00:41;1.00;;;0.43;;
16326;SDS011;34812;49.846;9.610;2023-07-13T12:05:54;2.55;;;0.60;;
16326;SDS011;34812;49.846;9.610;2023-07-13T12:10:59;0.60;;;0.55;;
16326;SDS011;34812;49.846;9.610;2023-07-13T12:16:02;1.38;;;0.60;;
16326;SDS011;34812;49.846;9.610;2023-07-13T12:21:10;0.60;;;0.50;;
16326;SDS011;34812;49.846;9.610;2023-07-13T12:26:14;0.50;;;0.50;;
16326;SDS011;34812;49.846;9.610;2023-07-13T12:31:25;1.80;;;0.60;;
16326;SDS011;34812;49.846;9.610;2023-07-13T12:36:29;2.80;;;0.47;;
16326;SDS011;34812;49.846;9.610;2023-07-13T12:41:32;5.78;;;0.70;;
16326;SDS011;34812;49.846;9.610;2023-07-13T12:46:36;1.00;;;0.50;;
16326;SDS011;34812;49.846;9.610;2023-07-13T12:51:38;2.17;;;0.60;;
16326;SDS011;34812;49.846;9.610;2023-07-13T12:56:41;1.77;;;0.70;;
16326;SDS011;34812;49.846;9.610;2023-07-13T13:01:45;0.85;;;0.43;;
16326;SDS011;34812;49.846;9.610;2023-07-13T13:06:49;2.28;;;0.68;;
16326;SDS011;34812;49.846;9.610;2023-07-13T13:12:02;2.45;;;0.73;;
16326;SDS011;34812;49.846;9.610;2023-07-13T13:17:11;0.98;;;0.50;;
16326;SDS011;34812;49.846;9.610;2023-07-13T13:22:19;1.65;;;0.60;;
16326;SDS011;34812;49.846;9.610;2023-07-13T13:27:21;0.50;;;0.50;;
16326;SDS011;34812;49.846;9.610;2023-07-13T13:32:25;1.23;;;0.80;;
16326;SDS011;34812;49.846;9.610;2023-07-13T13:37:28;1.80;;;0.73;;
16326;SDS011;34812;49.846;9.610;2023-07-13T13:42:30;1.05;;;0.45;;
16326;SDS011;34812;49.846;9.610;2023-07-13T13:47:34;1.83;;;0.60;;
16326;SDS011;34812;49.846;9.610;2023-07-13T13:52:37;0.88;;;0.45;;
16326;SDS011;34812;49.846;9.610;2023-07-13T13:57:40;0.60;;;0.45;;
16326;SDS011;34812;49.846;9.610;2023-07-13T14:02:44;3.25;;;0.80;;
16326;SDS011;34812;49.846;9.610;2023-07-13T14:07:47;0.93;;;0.50;;
16326;SDS011;34812;49.846;9.610;2023-07-13T14:12:51;1.55;;;0.55;;
16326;SDS011;34812;49.846;9.610;2023-07-13T14:17:55;0.80;;;0.60;;
16326;SDS011;34812;49.846;9.610;2023-07-13T14:22:57;5.25;;;0.80;;
16326;SDS011;34812;49.846;9.610;2023-07-13T14:27:59;6.47;;;0.95;;
16326;SDS011;34812;49.846;9.610;2023-07-13T14:33:09;0.68;;;0.50;;
16326;SDS011;34812;49.846;9.610;2023-07-13T14:38:14;0.50;;;0.40;;
16326;SDS011;34812;49.846;9.610;2023-07-13T14:43:17;2.22;;;0.57;;
16326;SDS011;34812;49.846;9.610;2023-07-13T14:48:21;1.90;;;0.63;;
16326;SDS011;34812;49.846;9.610;2023-07-13T14:53:24;0.75;;;0.40;;
16326;SDS011;34812;49.846;9.610;2023-07-13T14:58:27;6.05;;;0.73;;
16326;SDS011;34812;49.846;9.610;2023-07-13T15:03:33;1.00;;;0.55;;
16326;SDS011;34812;49.846;9.610;2023-07-13T15:08:35;1.35;;;0.80;;
16326;SDS011;34812;49.846;9.610;2023-07-13T15:13:38;1.85;;;0.57;;
16326;SDS011;34812;49.846;9.610;2023-07-13T15:18:42;2.30;;;0.60;;
16326;SDS011;34812;49.846;9.610;2023-07-13T15:23:44;0.32;;;0.32;;
16326;SDS011;34812;49.846;9.610;2023-07-13T15:28:46;2.53;;;0.75;;
16326;SDS011;34812;49.846;9.610;2023-07-13T15:33:50;1.00;;;0.93;;
16326;SDS011;34812;49.846;9.610;2023-07-13T15:38:53;2.88;;;0.57;;
16326;SDS011;34812;49.846;9.610;2023-07-13T15:43:56;0.90;;;0.57;;
16326;SDS011;34812;49.846;9.610;2023-07-13T15:49:00;3.60;;;0.60;;
16326;SDS011;34812;49.846;9.610;2023-07-13T15:54:03;2.10;;;0.70;;
16326;SDS011;34812;49.846;9.610;2023-07-13T15:59:07;1.40;;;0.43;;
16326;SDS011;34812;49.846;9.610;2023-07-13T16:04:14;0.30;;;0.30;;
16326;SDS011;34812;49.846;9.610;2023-07-13T16:09:17;2.13;;;0.70;;
16326;SDS011;34812;49.846;9.610;2023-07-13T16:14:20;0.50;;;0.40;;
16326;SDS011;34812;49.846;9.610;2023-07-13T16:19:26;1.42;;;0.80;;
16326;SDS011;34812;49.846;9.610;2023-07-13T16:24:29;0.63;;;0.40;;
16326;SDS011;34812;49.846;9.610;2023-07-13T16:29:31;0.60;;;0.60;;
16326;SDS011;34812;49.846;9.610;2023-07-13T16:34:36;1.38;;;0.50;;
16326;SDS011;34812;49.846;9.610;2023-07-13T16:39:38;2.00;;;0.75;;
16326;SDS011;34812;49.846;9.610;2023-07-13T16:44:42;0.50;;;0.30;;
16326;SDS011;34812;49.846;9.610;2023-07-13T16:49:46;1.02;;;0.55;;
16326;SDS011;34812;49.846;9.610;2023-07-13T16:54:49;2.55;;;0.65;;
16326;SDS011;34812;49.846;9.610;2023-07-13T16:59:53;2.60;;;0.63;;
16326;SDS011;34812;49.846;9.610;2023-07-13T17:04:58;0.40;;;0.40;;
16326;SDS011;34812;49.846;9.610;2023-07-13T17:10:00;1.50;;;0.60;;
16326;SDS011;34812;49.846;9.610;2023-07-13T17:15:03;1.23;;;0.75;;
16326;SDS011;34812;49.846;9.610;2023-07-13T17:20:15;0.60;;;0.40;;
16326;SDS011;34812;49.846;9.610;2023-07-13T17:25:18;0.30;;;0.30;;
16326;SDS011;34812;49.846;9.610;2023-07-13T17:30:21;0.52;;;0.50;;
16326;SDS011;34812;49.846;9.610;2023-07-13T17:35:25;5.32;;;0.70;;
16326;SDS011;34812;49.846;9.610;2023-07-13T17:40:28;2.05;;;0.47;;
16326;SDS011;34812;49.846;9.610;2023-07-13T17:45:31;2.20;;;0.50;;
16326;SDS011;34812;49.846;9.610;2023-07-13T17:50:35;0.63;;;0.45;;
16326;SDS011;34812;49.846;9.610;2023-07-13T17:55:38;1.40;;;0.30;;
16326;SDS011;34812;49.846;9.610;2023-07-13T18:00:40;3.85;;;0.40;;
16326;SDS011;34812;49.846;9.610;2023-07-13T18:05:45;0.40;;;0.40;;
16326;SDS011;34812;49.846;9.610;2023-07-13T18:10:47;1.40;;;0.57;;
16326;SDS011;34812;49.846;9.610;2023-07-13T18:15:49;1.95;;;0.50;;
16326;SDS011;34812;49.846;9.610;2023-07-13T18:20:53;1.08;;;0.50;;
16326;SDS011;34812;49.846;9.610;2023-07-13T18:25:55;1.00;;;0.40;;
16326;SDS011;34812;49.846;9.610;2023-07-13T18:30:57;1.50;;;0.50;;
16326;SDS011;34812;49.846;9.610;2023-07-13T18:36:01;1.58;;;0.63;;
16326;SDS011;34812;49.846;9.610;2023-07-13T18:41:05;0.65;;;0.55;;
16326;SDS011;34812;49.846;9.610;2023-07-13T18:46:11;3.45;;;0.80;;
16326;SDS011;34812;49.846;9.610;2023-07-13T18:51:15;2.00;;;0.52;;
16326;SDS011;34812;49.846;9.610;2023-07-13T18:56:19;0.77;;;0.60;;
16326;SDS011;34812;49.846;9.610;2023-07-13T19:01:23;0.70;;;0.50;;
16326;SDS011;34812;49.846;9.610;2023-07-13T19:06:28;1.20;;;0.47;;
16326;SDS011;34812;49.846;9.610;2023-07-13T19:11:31;1.48;;;0.70;;
16326;SDS011;34812;49.846;9.610;2023-07-13T19:16:33;1.27;;;0.70;;
16326;SDS011;34812;49.846;9.610;2023-07-13T19:21:36;1.65;;;0.60;;
16326;SDS011;34812;49.846;9.610;2023-07-13T19:26:39;1.85;;;0.60;;
16326;SDS011;34812;49.846;9.610;2023-07-13T19:31:41;1.27;;;0.68;;
16326;SDS011;34812;49.846;9.610;2023-07-13T19:36:47;0.50;;;0.30;;
16326;SDS011;34812;49.846;9.610;2023-07-13T19:41:49;1.30;;;0.50;;
16326;SDS011;34812;49.846;9.610;2023-07-13T19:46:51;1.67;;;0.85;;
16326;SDS011;34812;49.846;9.610;2023-07-13T19:52:00;1.27;;;0.63;;
16326;SDS011;34812;49.846;9.610;2023-07-13T19:57:03;0.95;;;0.60;;
16326;SDS011;34812;49.846;9.610;2023-07-13T20:02:07;1.23;;;0.73;;
16326;SDS011;34812;49.846;9.610;2023-07-13T20:07:13;3.63;;;0.60;;
16326;SDS011;34812;49.846;9.610;2023-07-13T20:12:17;0.93;;;0.73;;
16326;SDS011;34812;49.846;9.610;2023-07-13T20:17:24;0.85;;;0.57;;
16326;SDS011;34812;49.846;9.610;2023-07-13T20:22:28;1.35;;;0.73;;
16326;SDS011;34812;49.846;9.610;2023-07-13T20:27:30;2.35;;;0.60;;
16326;SDS011;34812;49.846;9.610;2023-07-13T20:32:34;0.60;;;0.60;;
16326;SDS011;34812;49.846;9.610;2023-07-13T20:37:39;0.80;;;0.57;;
16326;SDS011;34812;49.846;9.610;2023-07-13T20:42:42;4.50;;;0.82;;
16326;SDS011;34812;49.846;9.610;2023-07-13T20:47:45;0.60;;;0.52;;
16326;SDS011;34812;49.846;9.610;2023-07-13T20:52:49;1.98;;;0.57;;
16326;SDS011;34812;49.846;9.610;2023-07-13T20:57:52;0.75;;;0.75;;
16326;SDS011;34812;49.846;9.610;2023-07-13T21:02:54;2.70;;;0.80;;
16326;SDS011;34812;49.846;9.610;2023-07-13T21:07:59;1.00;;;0.85;;
16326;SDS011;34812;49.846;9.610;2023-07-13T21:13:02;4.28;;;0.93;;
16326;SDS011;34812;49.846;9.610;2023-07-13T21:18:04;3.15;;;0.80;;
16326;SDS011;34812;49.846;9.610;2023-07-13T21:23:12;1.13;;;0.70;;
16326;SDS011;34812;49.846;9.610;2023-07-13T21:28:25;0.75;;;0.75;;
16326;SDS011;34812;49.846;9.610;2023-07-13T21:33:27;3.63;;;0.93;;
16326;SDS011;34812;49.846;9.610;2023-07-13T21:38:31;1.08;;;0.70;;
16326;SDS011;34812;49.846;9.610;2023-07-13T21:43:34;0.70;;;0.70;;
16326;SDS011;34812;49.846;9.610;2023-07-13T21:48:36;0.85;;;0.80;;
16326;SDS011;34812;49.846;9.610;2023-07-13T21:53:40;1.60;;;1.00;;
16326;SDS011;34812;49.846;9.610;2023-07-13T21:58:42;1.35;;;0.80;;
16326;SDS011;34812;49.846;9.610;2023-07-13T22:03:44;1.00;;;0.90;;
16326;SDS011;34812;49.846;9.610;2023-07-13T22:08:49;6.22;;;1.10;;
16326;SDS011;34812;49.846;9.610;2023-07-13T22:13:52;1.75;;;1.13;;
16326;SDS011;34812;49.846;9.610;2023-07-13T22:18:56;3.93;;;0.70;;
16326;SDS011;34812;49.846;9.610;2023-07-13T22:23:59;1.23;;;0.80;;
16326;SDS011;34812;49.846;9.610;2023-07-13T22:29:05;0.73;;;0.70;;
16326;SDS011;34812;49.846;9.610;2023-07-13T22:34:11;0.80;;;0.80;;
16326;SDS011;34812;49.846;9.610;2023-07-13T22:39:16;1.10;;;0.70;;
16326;SDS011;34812;49.846;9.610;2023-07-13T22:44:22;0.80;;;0.80;;
16326;SDS011;34812;49.846;9.610;2023-07-13T22:49:25;1.30;;;1.00;;
16326;SDS011;34812;49.846;9.610;2023-07-13T22:54:30;1.93;;;0.97;;
16326;SDS011;34812;49.846;9.610;2023-07-13T22:59:34;2.17;;;1.00;;
16326;SDS011;34812;49.846;9.610;2023-07-13T23:04:36;1.80;;;1.17;;
16326;SDS011;34812;49.846;9.610;2023-07-13T23:09:39;1.70;;;0.90;;
16326;SDS011;34812;49.846;9.610;2023-07-13T23:14:42;1.90;;;1.07;;
16326;SDS011;34812;49.846;9.610;2023-07-13T23:19:44;2.00;;;0.73;;
16326;SDS011;34812;49.846;9.610;2023-07-13T23:24:48;1.00;;;0.90;;
16326;SDS011;34812;49.846;9.610;2023-07-13T23:29:50;1.83;;;0.93;;
16326;SDS011;34812;49.846;9.610;2023-07-13T23:34:52;4.00;;;0.90;;
16326;SDS011;34812;49.846;9.610;2023-07-13T23:39:56;2.60;;;0.80;;
16326;SDS011;34812;49.846;9.610;2023-07-13T23:44:58;1.10;;;1.03;;
16326;SDS011;34812;49.846;9.610;2023-07-13T23:50:00;1.10;;;1.00;;
16326;SDS011;34812;49.846;9.610;2023-07-13T23:55:09;0.80;;;0.80;;
